Weather observations for the past three days for
Monticello Regional Airport
Metric (Imperial)
Date Time (cdt) Wind (kph) Vis. (km) Weather Sky Cond. Temperature (ºC) Relative Humidity Wind Chill (°C) Heat Index (°C) Pressure Precipitation (cm)
Air Dwpt 6 hour altimeter (cm) sea level (mb) 1 hr 3 hr 6 hr
Max. Min.
06 04:15 Calm 16.09 Fair CLR 1 1 100% 75.97 0.0
06 03:55 Calm 16.09 Fair CLR 1 1 100% 75.97 0.0
06 03:35 Calm 16.09 Fair CLR 1 1 100% 75.97 0.0
06 03:15 Calm 16.09 Fair CLR 2 2 100% 75.97 0.0
06 02:55 Calm 16.09 Fair CLR 2 1 93% 75.97 0.0
06 02:35 Calm 1.61 Fair CLR 2 1 93% 75.97 0.0
06 02:10 Calm 16.09 Fair CLR 3 1 87% 75.95 0.0
06 01:55 Calm 16.09 Fair CLR 3 0 81% 75.92 0.0
06 01:35 Calm 16.09 Fair CLR 3 0 81% 75.92 0.0
06 01:15 Calm 16.09 Fair CLR 3 0 81% 75.92 0.0
06 00:55 Calm 16.09 Fair CLR 4 1 81% 75.92 0.0
06 00:15 Calm 16.09 Fair CLR 6 -1 61% 75.9 0.0
05 23:55 Calm 16.09 Fair CLR 6 0 66% 75.9 0.0
05 23:35 Calm 16.09 Fair CLR 7 -1 57% 75.87 0.0
05 23:15 Calm 16.09 Fair CLR 8 -2 50% 75.87 0.0
05 22:55 N 7 16.09 Fair CLR 8 -2 50% 7 75.87 0.0
05 22:35 N 11 16.09 Fair CLR 8 -2 50% 6 75.87 0.0
05 22:15 N 9 16.09 Fair CLR 9 -2 46% 8 75.87 0.0
05 21:55 N 9 16.09 Fair CLR 9 -3 43% 8 75.84 0.0
05 21:35 N 13 G 22 16.09 Fair CLR 10 -3 40% 8 75.82 0.0
05 21:15 N 11 16.09 Fair CLR 11 -3 38% 75.79 0.0
05 20:55 N 17 G 26 16.09 Fair CLR 11 -3 38% 75.77 0.0
05 20:35 N 17 G 30 16.09 Fair CLR 12 -3 35% 75.74 0.0
05 20:15 N 13 16.09 A Few Clouds FEW080 12 -3 35% 75.72 0.0
05 19:55 N 11 16.09 Fair CLR 12 -2 38% 75.69 0.0
05 19:35 N 11 14.48 Fair CLR 13 -3 33% 75.67 0.0
05 19:15 N 13 12.87 Fair CLR 13 -3 33% 75.67 0.0
05 18:55 N 19 G 33 16.09 Fair CLR 14 -3 31% 75.64 0.0
05 18:35 NW 15 16.09 A Few Clouds FEW080 14 -3 31% 75.62 0.0
05 18:15 NW 22 16.09 A Few Clouds FEW080 14 -3 31% 75.62 0.0
05 17:55 NW 17 16.09 Partly Cloudy SCT080 15 -3 29% 75.62 0.0
05 17:35 NW 19 16.09 Mostly Cloudy BKN080 15 -3 29% 75.62 0.0
05 17:15 NW 17 16.09 Partly Cloudy SCT080 15 -3 29% 75.62 0.0
05 16:55 NW 22 16.09 Partly Cloudy SCT080 15 -3 29% 75.64 0.0
05 16:35 W 20 G 33 16.09 Fair CLR 15 -3 29% 75.67 0.0
05 16:15 NW 15 G 30 16.09 Fair CLR 16 -4 25% 75.67 0.0
05 15:55 Vrbl 11 G 31 16.09 Fair CLR 15 -4 27% 75.67 0.0
05 15:35 W 15 G 30 16.09 Fair CLR 15 -4 27% 75.69 0.0
05 15:15 W 20 G 31 16.09 Fair CLR 15 -4 27% 75.72 0.0
05 14:35 NW 22 G 33 16.09 Fair CLR 14 -4 29% 75.72 0.0
05 14:15 W 17 G 35 16.09 A Few Clouds FEW080 15 -4 27% 75.74 0.0
05 13:55 W 19 G 30 16.09 Fair CLR 14 -4 29% 75.77 0.0
05 13:35 W 26 G 37 16.09 Fair CLR 15 -4 27% 75.77 0.0
05 13:15 W 17 G 31 16.09 A Few Clouds FEW075 14 -5 27% 75.77 0.0
05 12:55 W 22 G 31 16.09 A Few Clouds FEW075 14 -4 29% 75.77 0.0
05 12:35 NW 19 16.09 Fair CLR 14 -4 29% 75.79 0.0
05 12:15 NW 17 G 26 16.09 Fair CLR 13 -5 28% 75.79 0.0
05 11:55 N 19 16.09 Fair CLR 12 -4 33% 75.79 0.0
05 11:35 NW 17 G 28 16.09 Fair CLR 12 -5 30% 75.79 0.0
05 11:15 Vrbl 7 G 26 16.09 Fair CLR 12 -5 30% 75.79 0.0
05 10:35 NW 13 16.09 Fair CLR 11 -6 30% 75.77 0.0
05 10:15 NW 22 16.09 Fair CLR 12 -5 30% 75.77 0.0
05 09:55 NW 17 16.09 Fair CLR 11 -6 30% 75.77 0.0
05 09:35 NW 20 16.09 Fair CLR 11 -5 32% 75.77 0.0
05 09:15 N 13 16.09 Fair CLR 11 -4 35% 75.74 0.0
05 08:55 NW 13 16.09 Fair CLR 11 -4 35% 75.74 0.0
05 08:35 N 11 16.09 Fair CLR 10 -3 40% 9 75.77 0.0
05 08:15 NW 9 16.09 Fair CLR 10 -2 43% 9 75.79 0.0
05 07:55 W 9 16.09 Fair CLR 9 -1 50% 8 75.79 0.0
05 07:35 W 7 16.09 Fair CLR 8 1 62% 7 75.82 0.0
05 07:15 W 6 16.09 Fair CLR 7 1 66% 75.79 0.0
05 06:55 Calm 16.09 Fair CLR 6 0 66% 75.77 0.0
05 06:35 Calm 16.09 Fair CLR 6 0 66% 75.74 0.0
05 06:15 Calm 16.09 Fair CLR 6 0 66% 75.69 0.0
05 05:55 SW 9 16.09 Fair CLR 5 0 70% 3 75.69 0.0
05 05:35 N 6 16.09 Fair CLR 7 -2 53% 75.57 0.0
05 05:15 NW 6 16.09 Fair CLR 7 -2 53% 75.57 0.0
05 04:55 NW 9 16.09 Fair CLR 8 -3 46% 7 75.59 0.0
05 04:35 NW 7 16.09 Partly Cloudy SCT110 9 -2 46% 8 75.62 0.0
05 04:15 Calm 16.09 Mostly Cloudy FEW070 BKN110 8 -2 50% 75.62 0.0
05 03:55 NW 9 16.09 Overcast BKN070 OVC110 9 -3 43% 8 75.59 0.0
05 03:35 N 11 G 24 16.09 Mostly Cloudy BKN070 BKN100 BKN120 9 -4 40% 8 75.49 0.0
05 03:15 Calm 16.09 Mostly Cloudy BKN070 BKN090 BKN120 10 -4 37% 75.57 0.0
05 02:55 N 19 16.09 Overcast BKN070 OVC095 10 -3 40% 8 75.51 0.0
05 02:35 N 24 G 37 16.09 Overcast BKN070 OVC100 10 -2 43% 7 75.49 0.0
05 02:15 NW 31 G 44 16.09 Mostly Cloudy FEW039 SCT055 BKN075 10 -2 43% 7 75.46 0.0
05 01:55 NW 35 G 46 16.09 Overcast and Breezy SCT055 BKN075 OVC100 11 -2 41% 75.41 0.0
05 01:35 N 26 G 39 16.09 Mostly Cloudy SCT090 BKN110 11 -2 41% 75.39 0.0
05 01:15 NW 26 G 39 16.09 Partly Cloudy FEW090 SCT120 10 -2 43% 7 75.41 0.0
05 00:55 NW 28 G 41 16.09 Mostly Cloudy FEW085 BKN110 11 -2 41% 75.39 0.0
05 00:35 NW 28 G 43 16.09 Mostly Cloudy FEW039 FEW050 BKN100 11 -1 44% 75.39 0.0
05 00:15 NW 20 G 35 16.09 Mostly Cloudy SCT100 BKN120 11 -1 44% 75.39 0.0
04 23:55 NW 31 G 43 16.09 Mostly Cloudy BKN110 12 -1 41% 75.34 0.0
04 23:35 NW 31 G 43 16.09 Partly Cloudy SCT110 12 0 44% 75.36 0.0
04 23:15 NW 24 G 43 16.09 Mostly Cloudy SCT100 BKN120 13 0 41% 75.34 0.0
04 22:55 NW 26 G 35 16.09 Mostly Cloudy SCT100 BKN120 14 0 39% 75.29 0.0
04 22:35 NW 26 G 35 16.09 Partly Cloudy SCT120 14 0 39% 75.29 0.0
04 22:15 NW 19 16.09 A Few Clouds FEW120 14 0 39% 75.29 0.0
04 21:55 NW 17 16.09 A Few Clouds FEW080 14 0 39% 75.26 0.0
04 21:35 NW 22 16.09 Fair CLR 15 -1 34% 75.23 0.0
04 21:15 NW 17 16.09 Fair CLR 15 -1 34% 75.21 0.0
04 20:55 NW 26 G 37 16.09 Fair CLR 16 -1 31% 75.16 0.0
04 20:35 NW 24 G 43 16.09 Fair CLR 16 -1 31% 75.13 0.0
04 20:15 NW 26 G 48 16.09 Fair CLR 17 -1 30% 75.08 0.0
04 19:55 NW 28 G 46 16.09 Fair CLR 18 2 34% 75.03 0.0
04 19:35 NW 35 G 48 16.09 Fair and Breezy CLR 19 2 32% 75.01 0.0
04 19:15 NW 41 G 56 16.09 Fair and Breezy CLR 20 2 30% 74.96 0.0
04 18:55 NW 31 G 46 16.09 Fair CLR 22 2 27% 74.93 0.0
04 18:35 NW 33 G 48 16.09 Fair and Breezy CLR 22 3 29% 74.93 0.0
04 18:15 NW 39 G 52 16.09 Fair and Breezy CLR 23 3 27% 74.9 0.0
04 17:55 NW 35 G 48 16.09 Fair and Breezy CLR 24 3 25% 25 74.88 0.0
04 17:35 NW 30 G 41 16.09 Fair CLR 25 5 28% 25 74.85 0.0
04 17:15 NW 37 G 56 16.09 Fair and Breezy CLR 26 5 26% 26 74.83 0.0
04 16:55 NW 30 G 44 16.09 A Few Clouds FEW100 27 8 30% 26 74.8 0.0
04 16:35 NW 30 G 41 16.09 A Few Clouds FEW100 26 6 28% 26 74.78 0.0
04 16:15 W 26 G 46 16.09 A Few Clouds FEW095 FEW110 28 5 23% 27 74.78 0.0
04 15:55 W 35 G 46 14.48 A Few Clouds and Breezy FEW095 FEW110 28 6 25% 27 74.8 0.0
04 15:35 W 30 G 43 16.09 Partly Cloudy SCT095 SCT120 27 6 26% 26 74.8 0.0
04 15:15 W 35 16.09 Partly Cloudy and Breezy SCT090 27 6 26% 26 74.83 0.0
04 14:55 W 33 G 50 16.09 Partly Cloudy and Breezy SCT090 28 6 25% 27 74.85 0.0
04 14:35 W 35 G 46 16.09 Partly Cloudy and Breezy SCT090 28 6 25% 27 74.85 0.0
04 14:15 W 35 G 46 16.09 A Few Clouds and Breezy FEW095 28 6 25% 27 74.88 0.0
04 13:55 W 26 G 43 16.09 Partly Cloudy SCT095 26 6 28% 26 74.88 0.0
04 13:35 W 30 G 48 16.09 Partly Cloudy SCT090 26 6 28% 26 74.9 0.0
04 13:15 W 33 G 48 16.09 A Few Clouds and Breezy FEW085 26 6 28% 26 74.9 0.0
04 12:55 SW 33 G 44 16.09 Fair and Breezy CLR 26 8 32% 26 74.9 0.0
04 12:35 W 30 G 41 16.09 Fair CLR 26 7 30% 26 74.9 0.0
04 12:15 SW 24 G 35 16.09 Fair CLR 25 8 34% 26 74.93 0.0
04 11:55 SW 24 G 37 16.09 Fair CLR 25 7 32% 25 74.96 0.0
04 11:35 SW 28 G 39 16.09 Fair CLR 24 7 34% 25 74.96 0.0
04 11:15 SW 28 G 39 16.09 Fair CLR 24 7 34% 25 74.96 0.0
04 10:55 SW 28 16.09 Fair CLR 24 6 31% 25 74.98 0.0
04 10:35 SW 24 G 35 16.09 Fair CLR 23 5 31% 75.01 0.0
04 10:15 SW 24 G 35 16.09 Fair CLR 22 6 36% 75.03 0.0
04 09:55 SW 24 16.09 Fair CLR 21 6 38% 75.03 0.0
04 09:35 SW 20 16.09 Fair CLR 20 6 40% 75.06 0.0
04 09:15 SW 22 16.09 Fair CLR 19 6 43% 75.08 0.0
04 08:55 S 20 16.09 Fair CLR 18 6 46% 75.08 0.0
04 08:35 S 17 16.09 Fair CLR 17 5 45% 75.11 0.0
04 08:15 SW 17 16.09 Fair CLR 16 5 48% 75.13 0.0
04 07:55 SW 17 16.09 Fair CLR 15 4 48% 75.13 0.0
04 07:35 S 7 16.09 Fair CLR 13 6 63% 75.13 0.0
04 06:55 Calm 16.09 Fair CLR 11 4 62% 75.16 0.0
04 06:35 Calm 16.09 Fair CLR 10 3 62% 75.16 0.0
04 06:15 Calm 16.09 Fair CLR 8 3 71% 75.16 0.0
04 05:55 Calm 16.09 Fair CLR 9 3 66% 75.18 0.0
04 05:35 Calm 16.09 Fair CLR 9 3 66% 75.18 0.0
04 05:15 Calm 16.09 Fair CLR 8 4 76% 75.18 0.0
04 04:55 S 6 16.09 Fair CLR 8 4 76% 75.21 0.0
04 04:35 Calm 16.09 Fair CLR 7 4 81% 75.23 0.0
04 04:15 Calm 16.09 Fair CLR 7 4 81% 75.23 0.0
04 03:55 Calm 16.09 Fair CLR 8 4 76% 75.26 0.0
04 03:35 Calm 16.09 Fair CLR 8 4 76% 75.26 0.0
04 03:15 Calm 16.09 Fair CLR 5 4 93% 75.29 0.0
04 02:55 Calm 16.09 Fair CLR 6 5 93% 75.29 0.0
04 02:35 Calm 16.09 Fair CLR 6 6 100% 75.29 0.0
04 02:15 Calm 1.61 Fair CLR 7 5 87% 75.31 0.0
04 01:50 Calm 16.09 Fair CLR 6 6 100% 75.34 0.0
04 01:35 Calm 16.09 Fair CLR 7 6 93% 75.34 0.0
04 01:15 Calm 16.09 Fair CLR 8 5 82% 75.36 0.0
04 00:55 S 7 16.09 Fair CLR 7 6 93% 6 75.39 0.0
04 00:35 Calm 16.09 Fair CLR 8 5 82% 75.41 0.0
04 00:15 Calm 16.09 Fair CLR 9 5 76% 75.41 0.0
03 23:55 Calm 16.09 Fair CLR 8 5 82% 75.44 0.0
03 23:35 Calm 16.09 Fair CLR 12 3 54% 75.44 0.0
03 23:15 S 7 16.09 Fair CLR 9 5 76% 8 75.46 0.0
03 22:55 Calm 16.09 Fair CLR 11 4 62% 75.46 0.0
03 22:35 S 6 16.09 Fair CLR 10 4 67% 75.46 0.0
03 22:15 S 6 16.09 Fair CLR 10 4 67% 75.46 0.0
03 21:55 Calm 16.09 Fair CLR 14 3 48% 75.46 0.0
03 21:35 Calm 16.09 Fair CLR 14 3 48% 75.44 0.0
03 21:15 W 6 16.09 Fair CLR 15 2 42% 75.44 0.0
03 20:55 W 7 16.09 Fair CLR 16 2 39% 75.41 0.0
03 20:35 W 9 16.09 NULL NULL 17 2 37% 75.41 0.0
03 20:15 W 11 16.09 Fair CLR 18 1 32% 75.39 0.0
03 19:55 NW 15 16.09 Fair CLR 20 1 28% 75.36 0.0
03 19:35 W 15 16.09 Fair CLR 21 2 29% 75.36 0.0
03 19:15 W 15 G 26 16.09 Fair CLR 22 1 25% 75.36 0.0
03 18:55 W 15 G 28 16.09 Fair CLR 23 1 23% 75.36 0.0
03 18:35 W 26 16.09 Fair CLR 23 1 23% 75.34 0.0
03 18:10 W 22 G 39 16.09 Fair CLR 24 1 22% 25 75.34 0.0
03 17:55 NW 17 G 30 16.09 Fair CLR 24 2 24% 25 75.34 0.0
03 17:35 W 30 16.09 Fair CLR 24 3 25% 25 75.34 0.0
03 17:15 NW 26 16.09 Fair CLR 24 2 24% 25 75.31 0.0
03 16:55 NW 24 G 35 16.09 A Few Clouds FEW095 25 2 22% 25 75.31 0.0
03 16:35 W 24 G 41 16.09 A Few Clouds FEW090 24 3 25% 25 75.34 0.0
03 16:15 W 22 G 43 16.09 A Few Clouds FEW095 24 2 24% 25 75.34 0.0
03 15:55 W 26 16.09 Fair CLR 24 3 25% 25 75.34 0.0
03 15:35 NW 24 G 41 16.09 A Few Clouds FEW085 24 3 25% 25 75.36 0.0
03 15:15 W 22 G 35 14.48 A Few Clouds FEW080 24 4 27% 25 75.36 0.0
03 14:55 W 19 G 31 16.09 A Few Clouds FEW080 23 6 33% 75.39 0.0
03 14:35 W 17 16.09 Fair CLR 23 5 31% 75.41 0.0
03 14:15 SW 22 G 33 16.09 Fair CLR 22 6 36% 75.44 0.0
03 13:55 W 24 G 35 16.09 Fair CLR 22 5 33% 75.44 0.0
03 13:35 W 22 G 37 16.09 Fair CLR 21 5 35% 75.46 0.0
03 13:15 SW 22 16.09 Fair CLR 20 5 38% 75.49 0.0
03 12:55 SW 28 16.09 Fair CLR 20 5 38% 75.51 0.0
03 12:35 SW 28 G 39 16.09 Fair CLR 19 5 40% 75.54 0.0
03 12:15 SW 24 G 35 16.09 Fair CLR 19 5 40% 75.54 0.0
03 11:55 SW 24 G 43 16.09 Fair CLR 18 4 40% 75.57 0.0
03 11:35 SW 24 G 39 16.09 Fair CLR 17 4 42% 75.57 0.0
03 11:15 SW 31 G 43 16.09 A Few Clouds FEW100 17 4 42% 75.59 0.0
03 10:55 SW 30 G 41 16.09 A Few Clouds FEW100 16 4 45% 75.62 0.0
03 10:35 S 30 G 43 16.09 Fair CLR 15 4 48% 75.64 0.0
03 10:15 S 35 G 44 16.09 Fair and Breezy CLR 15 4 48% 75.64 0.0
03 09:55 S 28 G 41 16.09 Fair CLR 13 4 55% 75.67 0.0
03 09:35 S 28 G 39 16.09 Fair CLR 12 4 58% 75.69 0.0
03 09:15 S 26 G 35 16.09 Fair CLR 11 5 67% 75.72 0.0
03 08:55 S 28 G 39 16.09 Fair CLR 11 5 67% 75.69 0.0
03 08:35 S 26 G 37 16.09 Partly Cloudy FEW060 SCT070 10 4 67% 7 75.72 0.0
03 08:15 S 20 16.09 Overcast BKN060 OVC075 9 5 76% 6 75.77 0.0
03 07:55 SE 19 G 31 16.09 Light Rain BKN060 OVC070 9 5 76% 7 75.82 0.0
03 07:35 SE 17 16.09 Overcast FEW045 SCT055 OVC065 9 5 76% 7 75.84 0.0
03 07:15 SE 17 16.09 Light Rain FEW045 SCT055 BKN065 9 5 76% 7 75.9 0.0
03 06:55 SE 15 16.09 Mostly Cloudy SCT060 BKN095 9 5 76% 7 75.9 0.0
03 06:35 SE 15 16.09 Overcast FEW046 BKN055 OVC070 10 4 67% 8 75.9 0.0
03 06:15 SE 7 16.09 Overcast FEW021 BKN049 OVC065 10 4 67% 9 75.92 0.0
03 05:35 E 6 16.09 Overcast OVC075 10 4 67% 75.95 0.0
03 05:15 SE 11 16.09 Overcast BKN075 OVC090 10 4 67% 9 75.92 0.0
03 04:55 SE 11 16.09 Overcast OVC070 10 4 67% 9 75.95 0.0
03 04:35 S 7 16.09 Overcast FEW038 OVC070 9 7 87% 8 75.97 0.0
Date Time (cdt) Wind (kph) Vis. (km) Weather Sky Cond. Air Dwpt Max. Min. Relative Humidity Wind Chill (°C) Heat Index (°C) altimeter (cm) sea level (mb) 1 hr 3 hr 6 hr
6 hour
Temperature (ºC) Pressure Precipitation (cm)